sensor_id;sensor_type;location;lat;lon;timestamp;temperature;humidity
51035;DHT22;37062;52.546;13.230;2023-01-29T00:02:23;2.80;99.90
51035;DHT22;37062;52.546;13.230;2023-01-29T00:04:51;2.80;99.90
51035;DHT22;37062;52.546;13.230;2023-01-29T00:07:24;2.90;99.90
51035;DHT22;37062;52.546;13.230;2023-01-29T00:09:53;3.00;99.90
51035;DHT22;37062;52.546;13.230;2023-01-29T00:12:22;3.00;99.90
51035;DHT22;37062;52.546;13.230;2023-01-29T00:14:50;3.00;99.90
51035;DHT22;37062;52.546;13.230;2023-01-29T00:17:18;3.00;99.90
51035;DHT22;37062;52.546;13.230;2023-01-29T00:19:47;3.00;99.90
51035;DHT22;37062;52.546;13.230;2023-01-29T00:22:15;3.00;99.90
51035;DHT22;37062;52.546;13.230;2023-01-29T00:24:43;3.00;99.90
51035;DHT22;37062;52.546;13.230;2023-01-29T00:27:11;3.00;99.90
51035;DHT22;37062;52.546;13.230;2023-01-29T00:29:42;3.00;99.90
51035;DHT22;37062;52.546;13.230;2023-01-29T00:32:28;3.00;99.90
51035;DHT22;37062;52.546;13.230;2023-01-29T00:34:57;3.00;99.90
51035;DHT22;37062;52.546;13.230;2023-01-29T00:37:25;3.00;99.90
51035;DHT22;37062;52.546;13.230;2023-01-29T00:39:54;2.90;99.90
51035;DHT22;37062;52.546;13.230;2023-01-29T00:42:22;2.90;99.90
51035;DHT22;37062;52.546;13.230;2023-01-29T00:45:11;2.90;99.90
51035;DHT22;37062;52.546;13.230;2023-01-29T00:47:39;2.90;99.90
51035;DHT22;37062;52.546;13.230;2023-01-29T00:50:09;2.80;99.90
51035;DHT22;37062;52.546;13.230;2023-01-29T00:52:38;2.80;99.90
51035;DHT22;37062;52.546;13.230;2023-01-29T00:55:09;2.80;99.90
51035;DHT22;37062;52.546;13.230;2023-01-29T00:57:38;2.80;99.90
51035;DHT22;37062;52.546;13.230;2023-01-29T01:00:12;2.80;99.90
51035;DHT22;37062;52.546;13.230;2023-01-29T01:02:42;2.80;99.90
51035;DHT22;37062;52.546;13.230;2023-01-29T01:05:28;2.90;99.90
51035;DHT22;37062;52.546;13.230;2023-01-29T01:07:57;2.90;99.90
51035;DHT22;37062;52.546;13.230;2023-01-29T01:10:27;2.90;99.90
51035;DHT22;37062;52.546;13.230;2023-01-29T01:12:56;2.90;99.90
51035;DHT22;37062;52.546;13.230;2023-01-29T01:15:28;2.90;99.90
51035;DHT22;37062;52.546;13.230;2023-01-29T01:17:58;2.90;99.90
51035;DHT22;37062;52.546;13.230;2023-01-29T01:20:28;2.90;99.90
51035;DHT22;37062;52.546;13.230;2023-01-29T01:22:57;3.00;99.90
51035;DHT22;37062;52.546;13.230;2023-01-29T01:25:26;2.90;99.90
51035;DHT22;37062;52.546;13.230;2023-01-29T01:27:56;2.90;99.90
51035;DHT22;37062;52.546;13.230;2023-01-29T01:30:27;2.90;99.90
51035;DHT22;37062;52.546;13.230;2023-01-29T01:32:55;2.90;99.90
51035;DHT22;37062;52.546;13.230;2023-01-29T01:35:23;3.00;99.90
51035;DHT22;37062;52.546;13.230;2023-01-29T01:37:51;3.00;99.90
51035;DHT22;37062;52.546;13.230;2023-01-29T01:40:20;3.00;99.90
51035;DHT22;37062;52.546;13.230;2023-01-29T01:42:51;3.00;99.90
51035;DHT22;37062;52.546;13.230;2023-01-29T01:45:26;3.00;99.90
51035;DHT22;37062;52.546;13.230;2023-01-29T01:48:00;3.00;99.90
51035;DHT22;37062;52.546;13.230;2023-01-29T01:50:32;3.00;99.90
51035;DHT22;37062;52.546;13.230;2023-01-29T01:53:05;3.00;99.90
51035;DHT22;37062;52.546;13.230;2023-01-29T01:55:37;3.00;99.90
51035;DHT22;37062;52.546;13.230;2023-01-29T01:58:10;3.00;99.90
51035;DHT22;37062;52.546;13.230;2023-01-29T02:00:39;3.10;99.90
51035;DHT22;37062;52.546;13.230;2023-01-29T02:03:10;3.10;99.90
51035;DHT22;37062;52.546;13.230;2023-01-29T02:05:58;3.10;99.90
51035;DHT22;37062;52.546;13.230;2023-01-29T02:08:48;3.10;99.90
51035;DHT22;37062;52.546;13.230;2023-01-29T02:11:37;3.10;99.90
51035;DHT22;37062;52.546;13.230;2023-01-29T02:14:06;3.10;99.90
51035;DHT22;37062;52.546;13.230;2023-01-29T02:16:35;3.10;99.90
51035;DHT22;37062;52.546;13.230;2023-01-29T02:19:11;3.20;99.90
51035;DHT22;37062;52.546;13.230;2023-01-29T02:21:58;3.20;99.90
51035;DHT22;37062;52.546;13.230;2023-01-29T02:25:02;3.20;99.90
51035;DHT22;37062;52.546;13.230;2023-01-29T02:30:43;3.20;99.90
51035;DHT22;37062;52.546;13.230;2023-01-29T02:33:20;3.20;99.90
51035;DHT22;37062;52.546;13.230;2023-01-29T02:35:55;3.20;99.90
51035;DHT22;37062;52.546;13.230;2023-01-29T02:38:32;3.10;99.90
51035;DHT22;37062;52.546;13.230;2023-01-29T02:41:05;3.10;99.90
51035;DHT22;37062;52.546;13.230;2023-01-29T02:43:44;3.20;99.90
51035;DHT22;37062;52.546;13.230;2023-01-29T02:46:20;3.20;99.90
51035;DHT22;37062;52.546;13.230;2023-01-29T02:48:56;3.20;99.90
51035;DHT22;37062;52.546;13.230;2023-01-29T02:51:30;3.20;99.90
51035;DHT22;37062;52.546;13.230;2023-01-29T02:54:04;3.20;99.90
51035;DHT22;37062;52.546;13.230;2023-01-29T02:56:37;3.20;99.90
51035;DHT22;37062;52.546;13.230;2023-01-29T02:59:11;3.20;99.90
51035;DHT22;37062;52.546;13.230;2023-01-29T03:01:47;3.30;99.90
51035;DHT22;37062;52.546;13.230;2023-01-29T03:04:19;3.30;99.90
51035;DHT22;37062;52.546;13.230;2023-01-29T03:06:49;3.30;99.90
51035;DHT22;37062;52.546;13.230;2023-01-29T03:09:25;3.30;99.90
51035;DHT22;37062;52.546;13.230;2023-01-29T03:11:58;3.20;99.90
51035;DHT22;37062;52.546;13.230;2023-01-29T03:14:48;3.20;99.90
51035;DHT22;37062;52.546;13.230;2023-01-29T03:17:42;3.20;99.90
51035;DHT22;37062;52.546;13.230;2023-01-29T03:20:14;3.30;99.90
51035;DHT22;37062;52.546;13.230;2023-01-29T03:22:49;3.30;99.90
51035;DHT22;37062;52.546;13.230;2023-01-29T03:25:20;3.30;99.90
51035;DHT22;37062;52.546;13.230;2023-01-29T03:28:09;3.30;99.90
51035;DHT22;37062;52.546;13.230;2023-01-29T03:31:00;3.30;99.90
51035;DHT22;37062;52.546;13.230;2023-01-29T03:34:00;3.30;99.90
51035;DHT22;37062;52.546;13.230;2023-01-29T03:36:35;3.30;99.90
51035;DHT22;37062;52.546;13.230;2023-01-29T03:39:06;3.20;99.90
51035;DHT22;37062;52.546;13.230;2023-01-29T03:41:38;3.30;99.90
51035;DHT22;37062;52.546;13.230;2023-01-29T03:44:13;3.30;99.90
51035;DHT22;37062;52.546;13.230;2023-01-29T03:46:49;3.30;99.90
51035;DHT22;37062;52.546;13.230;2023-01-29T03:49:29;3.20;99.90
51035;DHT22;37062;52.546;13.230;2023-01-29T03:52:07;3.20;99.90
51035;DHT22;37062;52.546;13.230;2023-01-29T03:54:50;3.20;99.90
51035;DHT22;37062;52.546;13.230;2023-01-29T03:57:27;3.10;99.90
51035;DHT22;37062;52.546;13.230;2023-01-29T04:00:03;3.10;99.90
51035;DHT22;37062;52.546;13.230;2023-01-29T04:02:54;3.10;99.90
51035;DHT22;37062;52.546;13.230;2023-01-29T04:05:31;3.00;99.90
51035;DHT22;37062;52.546;13.230;2023-01-29T04:08:11;3.10;99.90
51035;DHT22;37062;52.546;13.230;2023-01-29T04:10:44;3.00;99.90
51035;DHT22;37062;52.546;13.230;2023-01-29T04:13:15;3.00;99.90
51035;DHT22;37062;52.546;13.230;2023-01-29T04:15:49;3.00;99.90
51035;DHT22;37062;52.546;13.230;2023-01-29T04:18:31;3.00;99.90
51035;DHT22;37062;52.546;13.230;2023-01-29T04:21:20;2.90;99.90
51035;DHT22;37062;52.546;13.230;2023-01-29T04:23:49;2.90;99.90
51035;DHT22;37062;52.546;13.230;2023-01-29T04:26:43;3.00;99.90
51035;DHT22;37062;52.546;13.230;2023-01-29T04:29:34;3.00;99.90
51035;DHT22;37062;52.546;13.230;2023-01-29T04:32:10;3.00;99.90
51035;DHT22;37062;52.546;13.230;2023-01-29T04:34:56;2.90;99.90
51035;DHT22;37062;52.546;13.230;2023-01-29T04:37:34;2.90;99.90
51035;DHT22;37062;52.546;13.230;2023-01-29T04:40:11;3.00;99.90
51035;DHT22;37062;52.546;13.230;2023-01-29T04:42:48;3.00;99.90
51035;DHT22;37062;52.546;13.230;2023-01-29T04:45:22;3.00;99.90
51035;DHT22;37062;52.546;13.230;2023-01-29T04:47:59;3.10;99.90
51035;DHT22;37062;52.546;13.230;2023-01-29T04:50:33;3.10;99.90
51035;DHT22;37062;52.546;13.230;2023-01-29T04:53:09;3.10;99.90
51035;DHT22;37062;52.546;13.230;2023-01-29T04:55:42;3.10;99.90
51035;DHT22;37062;52.546;13.230;2023-01-29T04:58:19;3.20;99.90
51035;DHT22;37062;52.546;13.230;2023-01-29T05:00:52;3.20;99.90
51035;DHT22;37062;52.546;13.230;2023-01-29T05:03:23;3.20;99.90
51035;DHT22;37062;52.546;13.230;2023-01-29T05:05:53;3.20;99.90
51035;DHT22;37062;52.546;13.230;2023-01-29T05:08:24;3.20;99.90
51035;DHT22;37062;52.546;13.230;2023-01-29T05:10:56;3.10;99.90
51035;DHT22;37062;52.546;13.230;2023-01-29T05:13:28;3.20;99.90
51035;DHT22;37062;52.546;13.230;2023-01-29T05:16:01;3.20;99.90
51035;DHT22;37062;52.546;13.230;2023-01-29T05:18:32;3.20;99.90
51035;DHT22;37062;52.546;13.230;2023-01-29T05:21:03;3.20;99.90
51035;DHT22;37062;52.546;13.230;2023-01-29T05:23:33;3.30;99.90
51035;DHT22;37062;52.546;13.230;2023-01-29T05:26:02;3.30;99.90
51035;DHT22;37062;52.546;13.230;2023-01-29T05:28:30;3.30;99.90
51035;DHT22;37062;52.546;13.230;2023-01-29T05:30:58;3.30;99.90
51035;DHT22;37062;52.546;13.230;2023-01-29T05:33:27;3.30;99.90
51035;DHT22;37062;52.546;13.230;2023-01-29T05:35:57;3.30;99.90
51035;DHT22;37062;52.546;13.230;2023-01-29T05:38:26;3.30;99.90
51035;DHT22;37062;52.546;13.230;2023-01-29T05:40:57;3.40;99.90
51035;DHT22;37062;52.546;13.230;2023-01-29T05:43:25;3.40;99.90
51035;DHT22;37062;52.546;13.230;2023-01-29T05:45:55;3.40;99.90
51035;DHT22;37062;52.546;13.230;2023-01-29T05:48:24;3.40;99.90
51035;DHT22;37062;52.546;13.230;2023-01-29T05:50:53;3.40;99.90
51035;DHT22;37062;52.546;13.230;2023-01-29T05:53:22;3.40;99.90
51035;DHT22;37062;52.546;13.230;2023-01-29T05:55:50;3.40;99.90
51035;DHT22;37062;52.546;13.230;2023-01-29T05:58:19;3.40;99.90
51035;DHT22;37062;52.546;13.230;2023-01-29T06:00:48;3.40;99.90
51035;DHT22;37062;52.546;13.230;2023-01-29T06:03:16;3.40;99.90
51035;DHT22;37062;52.546;13.230;2023-01-29T06:05:44;3.40;99.90
51035;DHT22;37062;52.546;13.230;2023-01-29T06:08:12;3.30;99.90
51035;DHT22;37062;52.546;13.230;2023-01-29T06:10:41;3.40;99.90
51035;DHT22;37062;52.546;13.230;2023-01-29T06:13:09;3.30;99.90
51035;DHT22;37062;52.546;13.230;2023-01-29T06:15:39;3.30;99.90
51035;DHT22;37062;52.546;13.230;2023-01-29T06:18:07;3.40;99.90
51035;DHT22;37062;52.546;13.230;2023-01-29T06:20:36;3.40;99.90
51035;DHT22;37062;52.546;13.230;2023-01-29T06:23:04;3.50;99.90
51035;DHT22;37062;52.546;13.230;2023-01-29T06:25:32;3.50;99.90
51035;DHT22;37062;52.546;13.230;2023-01-29T06:28:01;3.60;99.90
51035;DHT22;37062;52.546;13.230;2023-01-29T06:30:29;3.50;99.90
51035;DHT22;37062;52.546;13.230;2023-01-29T06:32:59;3.50;99.90
51035;DHT22;37062;52.546;13.230;2023-01-29T06:35:27;3.50;99.90
51035;DHT22;37062;52.546;13.230;2023-01-29T06:37:55;3.50;99.90
51035;DHT22;37062;52.546;13.230;2023-01-29T06:40:24;3.50;99.90
51035;DHT22;37062;52.546;13.230;2023-01-29T06:42:52;3.50;99.90
51035;DHT22;37062;52.546;13.230;2023-01-29T06:45:20;3.50;99.90
51035;DHT22;37062;52.546;13.230;2023-01-29T06:47:48;3.50;99.90
51035;DHT22;37062;52.546;13.230;2023-01-29T06:50:18;3.40;99.90
51035;DHT22;37062;52.546;13.230;2023-01-29T06:52:46;3.40;99.90
51035;DHT22;37062;52.546;13.230;2023-01-29T06:55:15;3.50;99.90
51035;DHT22;37062;52.546;13.230;2023-01-29T06:57:43;3.40;99.90
51035;DHT22;37062;52.546;13.230;2023-01-29T07:00:12;3.40;99.90
51035;DHT22;37062;52.546;13.230;2023-01-29T07:02:41;3.40;99.90
51035;DHT22;37062;52.546;13.230;2023-01-29T07:05:09;3.40;99.90
51035;DHT22;37062;52.546;13.230;2023-01-29T07:07:39;3.40;99.90
51035;DHT22;37062;52.546;13.230;2023-01-29T07:10:08;3.30;99.90
51035;DHT22;37062;52.546;13.230;2023-01-29T07:12:37;3.30;99.90
51035;DHT22;37062;52.546;13.230;2023-01-29T07:15:07;3.40;99.90
51035;DHT22;37062;52.546;13.230;2023-01-29T07:17:38;3.40;99.90
51035;DHT22;37062;52.546;13.230;2023-01-29T07:20:08;3.30;99.90
51035;DHT22;37062;52.546;13.230;2023-01-29T07:22:36;3.40;99.90
51035;DHT22;37062;52.546;13.230;2023-01-29T07:25:07;3.40;99.90
51035;DHT22;37062;52.546;13.230;2023-01-29T07:27:35;3.40;99.90
51035;DHT22;37062;52.546;13.230;2023-01-29T07:30:05;3.40;99.90
51035;DHT22;37062;52.546;13.230;2023-01-29T07:32:33;3.40;99.90
51035;DHT22;37062;52.546;13.230;2023-01-29T07:35:01;3.40;99.90
51035;DHT22;37062;52.546;13.230;2023-01-29T07:37:29;3.50;99.90
51035;DHT22;37062;52.546;13.230;2023-01-29T07:39:57;3.50;99.90
51035;DHT22;37062;52.546;13.230;2023-01-29T07:42:27;3.50;99.90
51035;DHT22;37062;52.546;13.230;2023-01-29T07:44:55;3.50;99.90
51035;DHT22;37062;52.546;13.230;2023-01-29T07:47:23;3.50;99.90
51035;DHT22;37062;52.546;13.230;2023-01-29T07:49:51;3.50;99.90
51035;DHT22;37062;52.546;13.230;2023-01-29T07:52:19;3.60;99.90
51035;DHT22;37062;52.546;13.230;2023-01-29T07:54:48;3.60;99.90
51035;DHT22;37062;52.546;13.230;2023-01-29T07:57:16;3.60;99.90
51035;DHT22;37062;52.546;13.230;2023-01-29T07:59:46;3.60;99.90
51035;DHT22;37062;52.546;13.230;2023-01-29T08:02:14;3.70;99.90
51035;DHT22;37062;52.546;13.230;2023-01-29T08:04:42;3.70;99.90
51035;DHT22;37062;52.546;13.230;2023-01-29T08:07:10;3.80;99.90
51035;DHT22;37062;52.546;13.230;2023-01-29T08:09:39;3.80;99.90
51035;DHT22;37062;52.546;13.230;2023-01-29T08:12:07;3.70;99.90
51035;DHT22;37062;52.546;13.230;2023-01-29T08:14:35;3.70;99.90
51035;DHT22;37062;52.546;13.230;2023-01-29T08:17:04;3.70;99.90
51035;DHT22;37062;52.546;13.230;2023-01-29T08:19:32;3.70;99.90
51035;DHT22;37062;52.546;13.230;2023-01-29T08:22:00;3.70;99.90
51035;DHT22;37062;52.546;13.230;2023-01-29T08:24:29;3.70;99.90
51035;DHT22;37062;52.546;13.230;2023-01-29T08:27:17;3.80;99.90
51035;DHT22;37062;52.546;13.230;2023-01-29T08:29:45;3.80;99.90
51035;DHT22;37062;52.546;13.230;2023-01-29T08:32:14;3.90;99.90
51035;DHT22;37062;52.546;13.230;2023-01-29T08:34:42;3.90;99.90
51035;DHT22;37062;52.546;13.230;2023-01-29T08:37:11;3.90;99.90
51035;DHT22;37062;52.546;13.230;2023-01-29T08:39:39;4.00;99.90
51035;DHT22;37062;52.546;13.230;2023-01-29T08:42:08;4.00;99.90
51035;DHT22;37062;52.546;13.230;2023-01-29T08:44:36;4.10;99.90
51035;DHT22;37062;52.546;13.230;2023-01-29T08:47:04;4.10;99.90
51035;DHT22;37062;52.546;13.230;2023-01-29T08:49:34;4.10;99.90
51035;DHT22;37062;52.546;13.230;2023-01-29T08:52:02;4.10;99.90
51035;DHT22;37062;52.546;13.230;2023-01-29T08:54:30;4.10;99.90
51035;DHT22;37062;52.546;13.230;2023-01-29T08:56:58;4.00;99.90
51035;DHT22;37062;52.546;13.230;2023-01-29T08:59:26;4.00;99.90
51035;DHT22;37062;52.546;13.230;2023-01-29T09:01:54;4.00;99.90
51035;DHT22;37062;52.546;13.230;2023-01-29T09:04:23;4.00;99.90
51035;DHT22;37062;52.546;13.230;2023-01-29T09:06:52;4.10;99.90
51035;DHT22;37062;52.546;13.230;2023-01-29T09:09:20;4.20;99.90
51035;DHT22;37062;52.546;13.230;2023-01-29T09:11:48;4.20;99.90
51035;DHT22;37062;52.546;13.230;2023-01-29T09:14:17;4.30;99.90
51035;DHT22;37062;52.546;13.230;2023-01-29T09:16:46;4.30;99.90
51035;DHT22;37062;52.546;13.230;2023-01-29T09:19:14;4.40;99.90
51035;DHT22;37062;52.546;13.230;2023-01-29T09:21:42;4.40;99.90
51035;DHT22;37062;52.546;13.230;2023-01-29T09:24:12;4.50;99.90
51035;DHT22;37062;52.546;13.230;2023-01-29T09:26:40;4.60;99.90
51035;DHT22;37062;52.546;13.230;2023-01-29T09:29:09;4.60;99.90
51035;DHT22;37062;52.546;13.230;2023-01-29T09:31:37;4.60;99.90
51035;DHT22;37062;52.546;13.230;2023-01-29T09:34:05;4.60;99.90
51035;DHT22;37062;52.546;13.230;2023-01-29T09:36:33;4.60;99.90
51035;DHT22;37062;52.546;13.230;2023-01-29T09:39:02;4.70;99.90
51035;DHT22;37062;52.546;13.230;2023-01-29T09:41:42;4.80;99.90
51035;DHT22;37062;52.546;13.230;2023-01-29T09:44:17;4.90;99.90
51035;DHT22;37062;52.546;13.230;2023-01-29T09:46:50;4.90;99.90
51035;DHT22;37062;52.546;13.230;2023-01-29T09:49:24;5.00;99.90
51035;DHT22;37062;52.546;13.230;2023-01-29T09:51:56;5.00;99.90
51035;DHT22;37062;52.546;13.230;2023-01-29T09:54:31;5.10;99.90
51035;DHT22;37062;52.546;13.230;2023-01-29T09:57:01;5.10;99.90
51035;DHT22;37062;52.546;13.230;2023-01-29T09:59:30;5.20;99.90
51035;DHT22;37062;52.546;13.230;2023-01-29T10:02:04;5.20;99.90
51035;DHT22;37062;52.546;13.230;2023-01-29T10:05:02;5.20;99.90
51035;DHT22;37062;52.546;13.230;2023-01-29T10:10:41;5.30;99.90
51035;DHT22;37062;52.546;13.230;2023-01-29T10:13:23;5.30;99.90
51035;DHT22;37062;52.546;13.230;2023-01-29T10:16:15;5.30;99.90
51035;DHT22;37062;52.546;13.230;2023-01-29T10:21:58;5.60;99.90
51035;DHT22;37062;52.546;13.230;2023-01-29T10:24:36;5.70;99.90
51035;DHT22;37062;52.546;13.230;2023-01-29T10:27:12;5.90;99.90
51035;DHT22;37062;52.546;13.230;2023-01-29T10:29:44;6.00;99.90
51035;DHT22;37062;52.546;13.230;2023-01-29T10:32:15;6.30;99.90
51035;DHT22;37062;52.546;13.230;2023-01-29T10:34:47;6.40;99.90
51035;DHT22;37062;52.546;13.230;2023-01-29T10:37:18;6.50;99.90
51035;DHT22;37062;52.546;13.230;2023-01-29T10:39:50;6.60;99.90
51035;DHT22;37062;52.546;13.230;2023-01-29T10:42:25;6.70;99.90
51035;DHT22;37062;52.546;13.230;2023-01-29T10:45:08;6.80;99.90
51035;DHT22;37062;52.546;13.230;2023-01-29T10:47:54;6.70;99.90
51035;DHT22;37062;52.546;13.230;2023-01-29T10:50:39;6.70;99.90
51035;DHT22;37062;52.546;13.230;2023-01-29T10:53:37;6.70;99.90
51035;DHT22;37062;52.546;13.230;2023-01-29T10:56:23;6.70;99.90
51035;DHT22;37062;52.546;13.230;2023-01-29T10:58:58;6.80;99.90
51035;DHT22;37062;52.546;13.230;2023-01-29T11:01:30;6.90;99.90
51035;DHT22;37062;52.546;13.230;2023-01-29T11:04:00;6.90;99.90
51035;DHT22;37062;52.546;13.230;2023-01-29T11:06:30;7.00;99.90
51035;DHT22;37062;52.546;13.230;2023-01-29T11:09:04;7.00;99.90
51035;DHT22;37062;52.546;13.230;2023-01-29T11:11:38;7.10;99.90
51035;DHT22;37062;52.546;13.230;2023-01-29T11:14:11;7.00;99.90
51035;DHT22;37062;52.546;13.230;2023-01-29T11:16:43;7.00;99.90
51035;DHT22;37062;52.546;13.230;2023-01-29T11:19:13;7.00;99.90
51035;DHT22;37062;52.546;13.230;2023-01-29T11:21:51;7.00;99.90
51035;DHT22;37062;52.546;13.230;2023-01-29T11:24:20;7.00;99.90
51035;DHT22;37062;52.546;13.230;2023-01-29T11:26:49;7.10;99.90
51035;DHT22;37062;52.546;13.230;2023-01-29T11:29:36;7.10;99.90
51035;DHT22;37062;52.546;13.230;2023-01-29T11:32:07;7.10;99.90
51035;DHT22;37062;52.546;13.230;2023-01-29T11:34:57;7.20;99.90
51035;DHT22;37062;52.546;13.230;2023-01-29T11:37:32;7.30;99.90
51035;DHT22;37062;52.546;13.230;2023-01-29T11:40:06;7.30;99.90
51035;DHT22;37062;52.546;13.230;2023-01-29T11:42:54;7.40;99.90
51035;DHT22;37062;52.546;13.230;2023-01-29T11:45:26;7.40;99.90
51035;DHT22;37062;52.546;13.230;2023-01-29T11:47:59;7.40;99.90
51035;DHT22;37062;52.546;13.230;2023-01-29T11:50:31;7.40;99.90
51035;DHT22;37062;52.546;13.230;2023-01-29T11:53:00;7.40;99.90
51035;DHT22;37062;52.546;13.230;2023-01-29T11:55:34;7.30;99.90
51035;DHT22;37062;52.546;13.230;2023-01-29T11:58:18;7.40;99.90
51035;DHT22;37062;52.546;13.230;2023-01-29T12:00:49;7.40;99.90
51035;DHT22;37062;52.546;13.230;2023-01-29T12:03:21;7.40;99.90
51035;DHT22;37062;52.546;13.230;2023-01-29T12:05:53;7.30;99.90
51035;DHT22;37062;52.546;13.230;2023-01-29T12:08:23;7.30;99.90
51035;DHT22;37062;52.546;13.230;2023-01-29T12:11:06;7.30;99.90
51035;DHT22;37062;52.546;13.230;2023-01-29T12:13:34;7.30;99.90
51035;DHT22;37062;52.546;13.230;2023-01-29T12:16:21;7.30;99.90
51035;DHT22;37062;52.546;13.230;2023-01-29T12:18:55;7.40;99.90
51035;DHT22;37062;52.546;13.230;2023-01-29T12:21:30;7.40;99.90
51035;DHT22;37062;52.546;13.230;2023-01-29T12:24:02;7.50;99.90
51035;DHT22;37062;52.546;13.230;2023-01-29T12:26:36;7.50;99.90
51035;DHT22;37062;52.546;13.230;2023-01-29T12:29:19;7.40;99.90
51035;DHT22;37062;52.546;13.230;2023-01-29T12:31:53;7.40;99.90
51035;DHT22;37062;52.546;13.230;2023-01-29T12:34:34;7.30;99.90
51035;DHT22;37062;52.546;13.230;2023-01-29T12:37:12;7.20;99.90
51035;DHT22;37062;52.546;13.230;2023-01-29T12:39:42;7.10;99.90
51035;DHT22;37062;52.546;13.230;2023-01-29T12:42:15;7.10;99.90
51035;DHT22;37062;52.546;13.230;2023-01-29T12:44:47;7.10;99.90
51035;DHT22;37062;52.546;13.230;2023-01-29T12:47:21;7.20;99.90
51035;DHT22;37062;52.546;13.230;2023-01-29T12:49:54;7.00;99.90
51035;DHT22;37062;52.546;13.230;2023-01-29T12:52:36;7.00;99.90
51035;DHT22;37062;52.546;13.230;2023-01-29T12:55:11;6.90;99.90
51035;DHT22;37062;52.546;13.230;2023-01-29T12:57:47;6.90;99.90
51035;DHT22;37062;52.546;13.230;2023-01-29T13:00:20;6.90;99.90
51035;DHT22;37062;52.546;13.230;2023-01-29T13:02:53;6.90;99.90
51035;DHT22;37062;52.546;13.230;2023-01-29T13:05:25;7.10;99.90
51035;DHT22;37062;52.546;13.230;2023-01-29T13:08:00;7.10;99.90
51035;DHT22;37062;52.546;13.230;2023-01-29T13:10:31;7.20;99.90
51035;DHT22;37062;52.546;13.230;2023-01-29T13:13:05;7.30;99.90
51035;DHT22;37062;52.546;13.230;2023-01-29T13:15:39;7.20;99.90
51035;DHT22;37062;52.546;13.230;2023-01-29T13:18:38;7.10;99.90
51035;DHT22;37062;52.546;13.230;2023-01-29T13:21:14;7.00;99.90
51035;DHT22;37062;52.546;13.230;2023-01-29T13:23:44;7.00;99.90
51035;DHT22;37062;52.546;13.230;2023-01-29T13:26:17;6.90;99.90
51035;DHT22;37062;52.546;13.230;2023-01-29T13:28:46;6.80;99.90
51035;DHT22;37062;52.546;13.230;2023-01-29T13:31:26;6.70;99.90
51035;DHT22;37062;52.546;13.230;2023-01-29T13:34:01;6.60;99.90
51035;DHT22;37062;52.546;13.230;2023-01-29T13:36:32;6.60;99.90
51035;DHT22;37062;52.546;13.230;2023-01-29T13:39:03;6.50;99.90
51035;DHT22;37062;52.546;13.230;2023-01-29T13:41:34;6.40;99.90
51035;DHT22;37062;52.546;13.230;2023-01-29T13:44:05;6.20;99.90
51035;DHT22;37062;52.546;13.230;2023-01-29T13:46:39;6.00;99.90
51035;DHT22;37062;52.546;13.230;2023-01-29T13:49:32;6.10;99.90
51035;DHT22;37062;52.546;13.230;2023-01-29T13:52:18;6.20;99.90
51035;DHT22;37062;52.546;13.230;2023-01-29T13:54:53;6.30;99.90
51035;DHT22;37062;52.546;13.230;2023-01-29T13:57:35;6.30;99.90
51035;DHT22;37062;52.546;13.230;2023-01-29T14:00:04;6.30;99.90
51035;DHT22;37062;52.546;13.230;2023-01-29T14:02:32;6.40;99.90
51035;DHT22;37062;52.546;13.230;2023-01-29T14:05:37;6.40;99.90
51035;DHT22;37062;52.546;13.230;2023-01-29T14:08:39;6.40;99.90
51035;DHT22;37062;52.546;13.230;2023-01-29T14:11:34;6.30;99.90
51035;DHT22;37062;52.546;13.230;2023-01-29T14:17:08;6.20;99.90
51035;DHT22;37062;52.546;13.230;2023-01-29T14:19:37;6.20;99.90
51035;DHT22;37062;52.546;13.230;2023-01-29T14:22:05;6.20;99.90
51035;DHT22;37062;52.546;13.230;2023-01-29T14:24:34;6.20;99.90
51035;DHT22;37062;52.546;13.230;2023-01-29T14:27:04;6.20;99.90
51035;DHT22;37062;52.546;13.230;2023-01-29T14:29:37;6.10;99.90
51035;DHT22;37062;52.546;13.230;2023-01-29T14:32:11;6.00;99.90
51035;DHT22;37062;52.546;13.230;2023-01-29T14:34:43;6.00;99.90
51035;DHT22;37062;52.546;13.230;2023-01-29T14:37:20;5.90;99.90
51035;DHT22;37062;52.546;13.230;2023-01-29T14:39:52;5.90;99.90
51035;DHT22;37062;52.546;13.230;2023-01-29T14:42:23;5.80;99.90
51035;DHT22;37062;52.546;13.230;2023-01-29T14:45:19;5.80;99.90
51035;DHT22;37062;52.546;13.230;2023-01-29T14:50:52;5.90;99.90
51035;DHT22;37062;52.546;13.230;2023-01-29T14:53:28;5.90;99.90
51035;DHT22;37062;52.546;13.230;2023-01-29T14:56:02;5.80;99.90
51035;DHT22;37062;52.546;13.230;2023-01-29T14:58:36;5.70;99.90
51035;DHT22;37062;52.546;13.230;2023-01-29T15:01:12;5.60;99.90
51035;DHT22;37062;52.546;13.230;2023-01-29T15:03:44;5.60;99.90
51035;DHT22;37062;52.546;13.230;2023-01-29T15:06:18;5.50;99.90
51035;DHT22;37062;52.546;13.230;2023-01-29T15:08:52;5.50;99.90
51035;DHT22;37062;52.546;13.230;2023-01-29T15:11:33;5.50;99.90
51035;DHT22;37062;52.546;13.230;2023-01-29T15:14:13;5.50;99.90
51035;DHT22;37062;52.546;13.230;2023-01-29T15:16:55;5.40;99.90
51035;DHT22;37062;52.546;13.230;2023-01-29T15:19:28;5.40;99.90
51035;DHT22;37062;52.546;13.230;2023-01-29T15:22:07;5.50;99.90
51035;DHT22;37062;52.546;13.230;2023-01-29T15:24:36;5.40;99.90
51035;DHT22;37062;52.546;13.230;2023-01-29T15:27:12;5.30;99.90
51035;DHT22;37062;52.546;13.230;2023-01-29T15:29:42;5.30;99.90
51035;DHT22;37062;52.546;13.230;2023-01-29T15:32:24;5.30;99.90
51035;DHT22;37062;52.546;13.230;2023-01-29T15:34:56;5.30;99.90
51035;DHT22;37062;52.546;13.230;2023-01-29T15:37:30;5.30;99.90
51035;DHT22;37062;52.546;13.230;2023-01-29T15:39:59;5.20;99.90
51035;DHT22;37062;52.546;13.230;2023-01-29T15:42:41;5.20;99.90
51035;DHT22;37062;52.546;13.230;2023-01-29T15:45:21;5.20;99.90
51035;DHT22;37062;52.546;13.230;2023-01-29T15:47:49;5.20;99.90
51035;DHT22;37062;52.546;13.230;2023-01-29T15:50:18;5.20;99.90
51035;DHT22;37062;52.546;13.230;2023-01-29T15:52:48;5.20;99.90
51035;DHT22;37062;52.546;13.230;2023-01-29T15:55:20;5.20;99.90
51035;DHT22;37062;52.546;13.230;2023-01-29T15:57:51;5.20;99.90
51035;DHT22;37062;52.546;13.230;2023-01-29T16:00:22;5.10;99.90
51035;DHT22;37062;52.546;13.230;2023-01-29T16:02:51;5.20;99.90
51035;DHT22;37062;52.546;13.230;2023-01-29T16:05:21;5.20;99.90
51035;DHT22;37062;52.546;13.230;2023-01-29T16:07:51;5.10;99.90
51035;DHT22;37062;52.546;13.230;2023-01-29T16:10:23;5.20;99.90
51035;DHT22;37062;52.546;13.230;2023-01-29T16:12:53;5.20;99.90
51035;DHT22;37062;52.546;13.230;2023-01-29T16:15:32;5.10;99.90
51035;DHT22;37062;52.546;13.230;2023-01-29T16:18:03;5.10;99.90
51035;DHT22;37062;52.546;13.230;2023-01-29T16:20:37;5.10;99.90
51035;DHT22;37062;52.546;13.230;2023-01-29T16:23:19;5.10;99.90
51035;DHT22;37062;52.546;13.230;2023-01-29T16:25:49;5.00;99.90